Time;durP1;ratioP1;P1;durP2;ratioP2;P2;SDS_P1;SDS_P2;PMS_P1;PMS_P2;Temp;Humidity;BMP_temperature;BMP_pressure;BME280_temperature;BME280_humidity;BME280_pressure;Samples;Min_cycle;Max_cycle;Signal;HPM_P1;HPM_P2
2022/01/07 00:02:19;;;;;;;;;;;;;;;22.01;30.55;97794.88;5076300;28;833;-75
2022/01/07 00:04:44;;;;;;;;;;;;;;;21.91;30.65;97798.06;5074860;28;981;-76
2022/01/07 00:07:10;;;;;;;;;;;;;;;22.44;29.71;97798.44;5075850;28;1196;-75
2022/01/07 00:09:36;;;;;;;;;;;;;;;21.99;30.61;97802.28;5076701;28;970;-75
2022/01/07 00:12:03;;;;;;;;;;;;;;;22.20;30.09;97807.28;5078229;28;1914;-75
2022/01/07 00:14:28;;;;;;;;;;;;;;;21.96;30.08;97811.66;5077654;28;715;-75
2022/01/07 00:16:54;;;;;;;;;;;;;;;21.99;30.20;97824.94;5078047;28;774;-75
2022/01/07 00:19:19;;;;;;;;;;;;;;;22.20;29.78;97817.81;5077101;28;775;-75
2022/01/07 00:21:45;;;;;;;;;;;;;;;22.29;29.74;97838.56;5077666;28;865;-75
2022/01/07 00:24:10;;;;;;;;;;;;;;;22.19;29.92;97839.72;5076828;28;991;-75
2022/01/07 00:26:36;;;;;;;;;;;;;;;21.92;30.33;97854.28;5110021;28;1004;-76
2022/01/07 00:29:01;;;;;;;;;;;;;;;22.46;29.03;97852.63;5094961;28;1212;-76
2022/01/07 00:31:27;;;;;;;;;;;;;;;22.38;29.22;97851.25;5096280;28;877;-76
2022/01/07 00:33:52;;;;;;;;;;;;;;;22.49;29.06;97851.72;5094377;28;1975;-75
2022/01/07 00:36:17;;;;;;;;;;;;;;;21.92;30.09;97853.50;5096364;28;898;-75
2022/01/07 00:38:43;;;;;;;;;;;;;;;21.91;29.94;97868.88;5094278;28;911;-75
2022/01/07 00:41:08;;;;;;;;;;;;;;;21.97;29.82;97872.75;5096178;28;1241;-75
2022/01/07 00:43:34;;;;;;;;;;;;;;;22.31;29.34;97887.09;5094477;28;796;-75
2022/01/07 00:45:59;;;;;;;;;;;;;;;22.30;29.02;97902.53;5096264;28;911;-75
2022/01/07 00:48:25;;;;;;;;;;;;;;;21.43;30.57;97902.59;5094367;28;792;-76
2022/01/07 00:50:50;;;;;;;;;;;;;;;22.00;29.53;97903.78;5095647;28;763;-75
2022/01/07 00:53:16;;;;;;;;;;;;;;;22.18;29.19;97908.19;5094530;28;1910;-76
2022/01/07 00:55:41;;;;;;;;;;;;;;;22.14;28.97;97911.13;5095456;28;957;-75
2022/01/07 00:58:07;;;;;;;;;;;;;;;21.90;29.69;97906.94;5094605;28;781;-76
2022/01/07 01:00:32;;;;;;;;;;;;;;;21.62;30.14;97914.25;5109764;28;892;-76
2022/01/07 01:02:59;;;;;;;;;;;;;;;22.22;28.87;97918.13;5108942;28;995;-76
2022/01/07 01:05:24;;;;;;;;;;;;;;;21.42;30.16;97917.22;5076962;28;798;-75
2022/01/07 01:07:50;;;;;;;;;;;;;;;22.05;29.27;97916.63;5110135;28;837;-75
2022/01/07 01:10:16;;;;;;;;;;;;;;;22.02;29.08;97911.84;5076795;28;798;-75
2022/01/07 01:12:42;;;;;;;;;;;;;;;22.18;28.56;97923.16;5077400;28;1965;-76
2022/01/07 01:15:08;;;;;;;;;;;;;;;21.23;30.30;97922.50;5076801;28;863;-75
2022/01/07 01:17:33;;;;;;;;;;;;;;;22.05;28.74;97925.13;5077104;28;790;-76
2022/01/07 01:19:59;;;;;;;;;;;;;;;22.11;28.91;97934.69;5076523;28;789;-75
2022/01/07 01:22:24;;;;;;;;;;;;;;;21.86;29.50;97929.69;5077225;28;858;-75
2022/01/07 01:24:50;;;;;;;;;;;;;;;21.90;29.49;97923.94;5076288;28;723;-75
2022/01/07 01:27:15;;;;;;;;;;;;;;;22.13;28.76;97925.75;5077273;28;735;-75
2022/01/07 01:29:41;;;;;;;;;;;;;;;21.85;28.77;97923.25;5076361;28;853;-76
2022/01/07 01:32:06;;;;;;;;;;;;;;;21.93;29.25;97923.84;5077367;28;1894;-75
2022/01/07 01:34:32;;;;;;;;;;;;;;;21.19;30.26;97921.81;5114432;28;852;-75
2022/01/07 01:36:57;;;;;;;;;;;;;;;22.15;28.53;97928.91;5115020;28;745;-76
2022/01/07 01:39:23;;;;;;;;;;;;;;;21.35;30.00;97928.69;5114533;28;845;-75
2022/01/07 01:41:48;;;;;;;;;;;;;;;22.07;28.74;97925.44;5115279;28;1230;-75
2022/01/07 01:44:14;;;;;;;;;;;;;;;22.54;28.00;97927.72;5114141;28;1210;-75
2022/01/07 01:46:39;;;;;;;;;;;;;;;21.63;29.11;97927.94;5094741;28;1045;-75
2022/01/07 01:49:05;;;;;;;;;;;;;;;22.26;28.50;97926.53;5094122;28;883;-74
2022/01/07 01:51:30;;;;;;;;;;;;;;;22.32;28.24;97936.88;5094726;28;1068;-75
2022/01/07 01:53:56;;;;;;;;;;;;;;;22.31;28.05;97932.44;5076752;28;1985;-76
2022/01/07 01:56:21;;;;;;;;;;;;;;;22.56;27.98;97937.34;5094951;28;998;-75
2022/01/07 01:58:46;;;;;;;;;;;;;;;22.00;28.58;97926.47;5093171;28;836;-75
2022/01/07 02:01:12;;;;;;;;;;;;;;;22.32;28.19;97939.69;5094308;28;885;-76
2022/01/07 02:03:37;;;;;;;;;;;;;;;21.67;29.42;97927.84;5093139;28;830;-75
2022/01/07 02:06:03;;;;;;;;;;;;;;;21.69;29.19;97934.63;5079772;28;884;-75
2022/01/07 02:08:29;;;;;;;;;;;;;;;22.33;27.98;97935.63;5073350;28;861;-75
2022/01/07 02:10:55;;;;;;;;;;;;;;;22.23;28.18;97931.09;5074647;28;731;-75
2022/01/07 02:13:20;;;;;;;;;;;;;;;21.93;28.83;97928.72;5073256;28;1909;-75
2022/01/07 02:15:45;;;;;;;;;;;;;;;22.13;28.60;97942.75;5074206;28;980;-76
2022/01/07 02:18:11;;;;;;;;;;;;;;;22.35;28.31;97927.47;5076219;28;909;-75
2022/01/07 02:20:36;;;;;;;;;;;;;;;22.26;28.17;97938.66;5079758;28;872;-75
2022/01/07 02:23:02;;;;;;;;;;;;;;;21.89;28.91;97940.16;5079719;28;679;-76
2022/01/07 02:25:28;;;;;;;;;;;;;;;22.40;27.96;97931.00;5079865;28;727;-75
2022/01/07 02:27:53;;;;;;;;;;;;;;;22.45;27.95;97921.94;5079851;28;837;-75
2022/01/07 02:30:20;;;;;;;;;;;;;;;22.34;28.05;97914.53;5117657;28;899;-75
2022/01/07 02:32:45;;;;;;;;;;;;;;;22.35;28.17;97924.63;5117819;28;1985;-75
2022/01/07 02:35:11;;;;;;;;;;;;;;;22.34;27.86;97925.09;5117139;28;775;-75
2022/01/07 02:37:36;;;;;;;;;;;;;;;21.80;28.92;97926.63;5100997;28;804;-75
2022/01/07 02:40:03;;;;;;;;;;;;;;;22.33;27.84;97924.31;5117622;28;1219;-75
2022/01/07 02:42:28;;;;;;;;;;;;;;;22.25;27.89;97934.25;5100997;28;734;-75
2022/01/07 02:44:54;;;;;;;;;;;;;;;22.30;28.20;97936.53;5117200;28;909;-76
2022/01/07 02:47:21;;;;;;;;;;;;;;;21.97;28.60;97946.41;5117621;28;933;-75
2022/01/07 02:49:47;;;;;;;;;;;;;;;22.26;28.01;97969.84;5083635;28;904;-76
2022/01/07 02:52:12;;;;;;;;;;;;;;;22.29;28.13;97968.97;5117817;28;1981;-75
2022/01/07 02:54:38;;;;;;;;;;;;;;;22.01;28.35;97959.22;5117350;28;877;-75
2022/01/07 02:57:04;;;;;;;;;;;;;;;22.03;28.65;97972.94;5117574;28;864;-75
2022/01/07 02:59:29;;;;;;;;;;;;;;;22.30;27.92;97979.06;5116792;28;821;-76
2022/01/07 03:01:54;;;;;;;;;;;;;;;22.33;28.31;97978.16;5088436;28;934;-75
2022/01/07 03:04:20;;;;;;;;;;;;;;;22.26;27.88;97984.03;5078609;28;857;-75
2022/01/07 03:06:46;;;;;;;;;;;;;;;22.48;27.83;97974.88;5079225;28;802;-75
2022/01/07 03:09:11;;;;;;;;;;;;;;;21.30;29.57;97981.78;5075865;28;919;-75
2022/01/07 03:11:37;;;;;;;;;;;;;;;22.10;28.48;97986.91;5076839;28;907;-75
2022/01/07 03:14:02;;;;;;;;;;;;;;;22.39;27.78;97994.63;5075614;28;2035;-75
2022/01/07 03:16:28;;;;;;;;;;;;;;;21.94;28.62;97981.31;5076269;28;837;-75
2022/01/07 03:18:53;;;;;;;;;;;;;;;21.89;28.53;98001.69;5075358;28;759;-75
2022/01/07 03:21:18;;;;;;;;;;;;;;;22.58;27.75;98007.78;5076850;28;810;-75
2022/01/07 03:23:45;;;;;;;;;;;;;;;22.62;27.53;98019.81;5075497;28;873;-75
2022/01/07 03:26:10;;;;;;;;;;;;;;;21.71;29.01;98019.97;5076894;28;802;-75
2022/01/07 03:28:36;;;;;;;;;;;;;;;21.92;28.59;98023.47;5074941;28;908;-76
2022/01/07 03:31:01;;;;;;;;;;;;;;;22.38;27.65;98027.03;5076774;28;834;-75
2022/01/07 03:33:27;;;;;;;;;;;;;;;22.08;28.33;98026.25;5074890;28;1971;-75
2022/01/07 03:35:52;;;;;;;;;;;;;;;21.84;28.84;98020.81;5076124;28;1022;-75
2022/01/07 03:38:19;;;;;;;;;;;;;;;22.48;27.61;98031.56;5075265;28;1149;-75
2022/01/07 03:40:45;;;;;;;;;;;;;;;22.40;27.43;98030.22;5077995;28;959;-75
2022/01/07 03:43:10;;;;;;;;;;;;;;;22.54;27.49;98024.13;5077432;28;901;-75
2022/01/07 03:45:36;;;;;;;;;;;;;;;22.01;28.21;98027.22;5078022;28;739;-76
2022/01/07 03:48:01;;;;;;;;;;;;;;;22.33;27.88;98039.72;5083043;28;766;-75
2022/01/07 03:50:27;;;;;;;;;;;;;;;22.39;27.62;98034.31;5079427;28;838;-75
2022/01/07 03:52:53;;;;;;;;;;;;;;;22.28;27.83;98034.63;5077889;28;1976;-75
2022/01/07 03:55:19;;;;;;;;;;;;;;;22.36;27.57;98035.97;5077824;28;695;-75
2022/01/07 03:57:45;;;;;;;;;;;;;;;22.52;27.25;98032.28;5077642;28;845;-75
2022/01/07 04:00:14;;;;;;;;;;;;;;;21.84;28.64;98029.31;5077231;28;805;-74
2022/01/07 04:02:40;;;;;;;;;;;;;;;21.73;28.74;98033.66;5108961;28;1029;-75
2022/01/07 04:05:05;;;;;;;;;;;;;;;22.38;27.69;98032.69;5077128;28;742;-75
2022/01/07 04:07:31;;;;;;;;;;;;;;;22.12;27.77;98043.94;5077668;28;727;-75
2022/01/07 04:09:57;;;;;;;;;;;;;;;21.80;28.40;98045.59;5077199;28;968;-75
2022/01/07 04:12:23;;;;;;;;;;;;;;;22.43;27.31;98046.31;5077168;28;1902;-75
2022/01/07 04:14:53;;;;;;;;;;;;;;;22.44;27.02;98042.25;5077009;28;723;-75
2022/01/07 04:17:19;;;;;;;;;;;;;;;22.00;28.11;98041.84;5107862;28;915;-75
2022/01/07 04:19:44;;;;;;;;;;;;;;;21.82;28.17;98048.78;5076909;28;734;-75
2022/01/07 04:22:10;;;;;;;;;;;;;;;21.87;28.13;98058.00;5077490;28;1020;-75
2022/01/07 04:24:35;;;;;;;;;;;;;;;21.93;27.96;98056.19;5077048;28;745;-75
2022/01/07 04:27:01;;;;;;;;;;;;;;;22.49;27.13;98067.22;5077535;28;782;-75
2022/01/07 04:29:26;;;;;;;;;;;;;;;22.43;27.21;98063.31;5076480;28;750;-75
2022/01/07 04:31:52;;;;;;;;;;;;;;;22.44;27.33;98070.59;5108767;28;1989;-75
2022/01/07 04:34:17;;;;;;;;;;;;;;;22.06;27.71;98069.16;5076656;28;742;-75
2022/01/07 04:36:42;;;;;;;;;;;;;;;22.26;27.43;98088.91;5077348;28;730;-75
2022/01/07 04:39:08;;;;;;;;;;;;;;;22.59;27.07;98102.97;5076602;28;758;-75
2022/01/07 04:41:33;;;;;;;;;;;;;;;22.43;27.08;98097.34;5076278;28;1099;-75
2022/01/07 04:43:59;;;;;;;;;;;;;;;22.02;27.70;98084.66;5076014;28;829;-75
2022/01/07 04:46:24;;;;;;;;;;;;;;;21.73;28.40;98096.75;5077351;28;746;-75
2022/01/07 04:48:50;;;;;;;;;;;;;;;22.15;27.86;98105.41;5076805;28;855;-75
2022/01/07 04:51:15;;;;;;;;;;;;;;;22.41;27.51;98111.19;5077324;28;810;-75
2022/01/07 04:53:41;;;;;;;;;;;;;;;22.43;27.09;98108.69;5076332;28;1934;-75
2022/01/07 04:56:06;;;;;;;;;;;;;;;22.21;27.69;98123.44;5077243;28;851;-75
2022/01/07 04:58:31;;;;;;;;;;;;;;;22.25;27.61;98127.00;5076761;28;915;-75
2022/01/07 05:00:57;;;;;;;;;;;;;;;22.23;27.23;98135.16;5077081;28;880;-75
2022/01/07 05:03:22;;;;;;;;;;;;;;;21.93;28.04;98138.34;5108090;28;965;-75
2022/01/07 05:05:56;;;;;;;;;;;;;;;21.32;29.15;98143.47;5076886;28;902;-75
2022/01/07 05:08:22;;;;;;;;;;;;;;;22.11;27.61;98147.22;5076189;28;1004;-75
2022/01/07 05:10:47;;;;;;;;;;;;;;;22.35;27.18;98147.78;5076733;28;1005;-75
2022/01/07 05:13:13;;;;;;;;;;;;;;;22.02;28.09;98159.16;5075745;28;1914;-75
2022/01/07 05:15:38;;;;;;;;;;;;;;;21.99;27.73;98170.56;5077260;28;960;-75
2022/01/07 05:18:03;;;;;;;;;;;;;;;22.23;27.33;98169.16;5076361;28;918;-75
2022/01/07 05:20:29;;;;;;;;;;;;;;;22.39;27.08;98170.38;5076633;28;884;-75
2022/01/07 05:22:54;;;;;;;;;;;;;;;21.63;28.39;98162.97;5076105;28;912;-75
2022/01/07 05:25:21;;;;;;;;;;;;;;;22.33;27.45;98168.09;5076511;28;908;-75
2022/01/07 05:27:46;;;;;;;;;;;;;;;22.45;27.10;98157.25;5076079;28;888;-76
2022/01/07 05:30:12;;;;;;;;;;;;;;;21.80;28.44;98170.22;5056913;28;978;-75
2022/01/07 05:32:37;;;;;;;;;;;;;;;21.42;28.72;98166.31;5076658;28;1997;-75
2022/01/07 05:35:03;;;;;;;;;;;;;;;21.38;28.72;98157.09;5075816;28;968;-75
2022/01/07 05:37:28;;;;;;;;;;;;;;;22.20;27.56;98170.03;5099075;28;1224;-76
2022/01/07 05:39:56;;;;;;;;;;;;;;;22.08;27.69;98162.25;5076428;28;1175;-75
2022/01/07 05:42:21;;;;;;;;;;;;;;;22.47;27.04;98174.59;5094664;28;1069;-75
2022/01/07 05:44:49;;;;;;;;;;;;;;;22.39;27.29;98181.72;5106908;28;1220;-75
2022/01/07 05:47:14;;;;;;;;;;;;;;;22.00;27.62;98149.50;5114837;28;992;-75
2022/01/07 05:49:40;;;;;;;;;;;;;;;22.32;27.01;98189.16;5113919;28;933;-75
2022/01/07 05:52:08;;;;;;;;;;;;;;;22.54;26.82;98188.59;5116032;28;1910;-75
2022/01/07 05:54:33;;;;;;;;;;;;;;;21.82;27.86;98184.75;5117904;28;1156;-75
2022/01/07 05:56:59;;;;;;;;;;;;;;;21.92;27.80;98204.75;5118893;28;950;-75
2022/01/07 05:59:25;;;;;;;;;;;;;;;22.36;27.21;98204.03;5118387;28;990;-75
2022/01/07 06:01:50;;;;;;;;;;;;;;;21.94;27.71;98199.44;5101460;28;996;-75
2022/01/07 06:04:16;;;;;;;;;;;;;;;22.17;27.33;98204.94;5117692;28;981;-75
2022/01/07 06:06:41;;;;;;;;;;;;;;;22.52;26.99;98199.56;5118362;28;1080;-74
2022/01/07 06:09:07;;;;;;;;;;;;;;;21.67;28.04;98205.34;5083154;28;994;-75
2022/01/07 06:11:33;;;;;;;;;;;;;;;21.74;28.25;98217.31;5118073;28;1039;-76
2022/01/07 06:13:59;;;;;;;;;;;;;;;22.39;27.17;98210.06;5112815;28;2047;-75
2022/01/07 06:16:24;;;;;;;;;;;;;;;22.34;27.11;98226.38;5079909;28;982;-75
2022/01/07 06:18:59;;;;;;;;;;;;;;;22.40;26.70;98228.66;5078826;28;874;-75
2022/01/07 06:21:24;;;;;;;;;;;;;;;22.35;26.90;98230.78;5079523;28;860;-75
2022/01/07 06:23:50;;;;;;;;;;;;;;;22.19;27.39;98236.47;5110918;28;1017;-75
2022/01/07 06:26:15;;;;;;;;;;;;;;;22.09;27.34;98243.19;5079641;28;951;-75
2022/01/07 06:28:41;;;;;;;;;;;;;;;22.41;26.88;98247.28;5117247;28;992;-75
2022/01/07 06:31:06;;;;;;;;;;;;;;;22.14;27.23;98244.72;5117969;28;1009;-75
2022/01/07 06:33:32;;;;;;;;;;;;;;;21.81;27.99;98233.31;5117001;28;1903;-75
2022/01/07 06:35:57;;;;;;;;;;;;;;;22.39;26.75;98244.09;5118782;28;916;-75
2022/01/07 06:38:23;;;;;;;;;;;;;;;22.52;26.51;98248.56;5075592;28;1333;-76
2022/01/07 06:40:48;;;;;;;;;;;;;;;21.60;27.95;98245.94;5077407;28;1288;-75
2022/01/07 06:43:13;;;;;;;;;;;;;;;21.89;27.62;98246.09;5076314;28;1159;-76
2022/01/07 06:45:39;;;;;;;;;;;;;;;22.14;27.20;98244.72;5077148;28;937;-76
2022/01/07 06:48:05;;;;;;;;;;;;;;;21.51;28.09;98248.59;5076578;28;1021;-75
2022/01/07 06:50:30;;;;;;;;;;;;;;;21.81;27.79;98251.16;5059767;28;1464;-75
2022/01/07 06:52:55;;;;;;;;;;;;;;;22.18;27.02;98251.91;5036296;28;1975;-75
2022/01/07 06:55:21;;;;;;;;;;;;;;;22.19;27.30;98258.38;5036371;28;941;-75
2022/01/07 06:57:46;;;;;;;;;;;;;;;22.24;26.86;98261.47;4996960;28;1072;-75
2022/01/07 07:00:12;;;;;;;;;;;;;;;21.93;27.53;98263.00;4983029;28;1031;-76
2022/01/07 07:02:38;;;;;;;;;;;;;;;21.93;27.37;98252.47;4994155;28;976;-76
2022/01/07 07:05:03;;;;;;;;;;;;;;;22.31;26.77;98255.59;4976450;28;1030;-75
2022/01/07 07:07:29;;;;;;;;;;;;;;;21.94;27.77;98262.56;4994029;28;903;-75
2022/01/07 07:09:54;;;;;;;;;;;;;;;22.40;26.64;98262.69;5007792;28;947;-75
2022/01/07 07:12:19;;;;;;;;;;;;;;;22.52;26.72;98259.13;4997877;28;1987;-76
2022/01/07 07:14:45;;;;;;;;;;;;;;;22.14;27.13;98273.06;4996656;28;1159;-76
2022/01/07 07:17:12;;;;;;;;;;;;;;;22.32;27.01;98271.38;4980589;28;951;-75
2022/01/07 07:19:37;;;;;;;;;;;;;;;22.40;26.68;98274.81;4937909;29;1025;-76
2022/01/07 07:22:03;;;;;;;;;;;;;;;21.49;27.30;98177.44;4938946;29;1255;-75
2022/01/07 07:24:28;;;;;;;;;;;;;;;22.02;27.25;98271.69;4966966;28;1275;-75
2022/01/07 07:26:54;;;;;;;;;;;;;;;22.35;26.76;98272.53;4977605;28;939;-75
2022/01/07 07:29:19;;;;;;;;;;;;;;;21.87;27.70;98271.25;5020076;28;1007;-75
2022/01/07 07:31:49;;;;;;;;;;;;;;;21.41;28.48;98270.25;5036299;28;966;-75
2022/01/07 07:34:43;;;;;;;;;;;;;;;21.29;28.93;98282.97;5035513;28;1078;-75
2022/01/07 07:37:07;;;;;;;;;;;;;;;22.04;27.55;98274.88;5036076;28;940;-75
2022/01/07 07:39:33;;;;;;;;;;;;;;;22.11;26.94;98280.41;5035291;28;988;-75
2022/01/07 07:41:58;;;;;;;;;;;;;;;22.33;26.84;98287.16;5035975;28;1201;-75
2022/01/07 07:44:29;;;;;;;;;;;;;;;22.32;26.67;98274.19;5035056;28;1246;-74
2022/01/07 07:46:54;;;;;;;;;;;;;;;21.74;27.94;98279.63;5035969;28;975;-75
2022/01/07 07:49:19;;;;;;;;;;;;;;;21.92;27.73;98272.75;5035211;28;982;-76
2022/01/07 07:51:46;;;;;;;;;;;;;;;22.08;27.21;98276.41;5075146;28;902;-77
2022/01/07 07:54:12;;;;;;;;;;;;;;;21.76;27.88;98277.16;5075222;28;1963;-77
2022/01/07 07:56:37;;;;;;;;;;;;;;;21.92;27.65;98279.22;5076180;28;978;-76
2022/01/07 07:59:03;;;;;;;;;;;;;;;22.40;26.72;98279.69;5058725;28;1004;-76
2022/01/07 08:01:28;;;;;;;;;;;;;;;22.29;26.71;98282.81;5075788;28;972;-76
2022/01/07 08:03:54;;;;;;;;;;;;;;;21.92;27.24;98278.41;5054650;28;1215;-76
2022/01/07 08:06:19;;;;;;;;;;;;;;;22.42;26.51;98282.88;5055574;28;981;-76
2022/01/07 08:08:46;;;;;;;;;;;;;;;22.54;26.45;98285.81;4984755;28;994;-76
2022/01/07 08:11:13;;;;;;;;;;;;;;;21.92;27.32;98289.75;5015821;28;1094;-76
2022/01/07 08:16:23;;;;;;;;;;;;;;;22.29;26.77;98292.09;5015755;28;1003;-76
2022/01/07 08:18:55;;;;;;;;;;;;;;;22.22;27.35;98297.94;5015269;28;906;-76
2022/01/07 08:21:21;;;;;;;;;;;;;;;22.45;26.46;98296.19;5015274;28;1047;-76
2022/01/07 08:23:46;;;;;;;;;;;;;;;22.39;26.58;98300.78;5014960;28;988;-76
2022/01/07 08:26:12;;;;;;;;;;;;;;;21.55;27.96;98295.41;5016106;28;1029;-76
2022/01/07 08:28:42;;;;;;;;;;;;;;;22.30;27.01;98302.19;5034140;28;960;-76
2022/01/07 08:36:17;;;;;;;;;;;;;;;22.01;27.30;98292.75;5034821;28;1164;-75
2022/01/07 08:38:43;;;;;;;;;;;;;;;22.31;26.86;98300.97;5033840;28;960;-76
2022/01/07 08:41:09;;;;;;;;;;;;;;;22.07;26.90;98305.16;5017861;28;1207;-76
2022/01/07 08:43:35;;;;;;;;;;;;;;;22.02;27.42;98311.34;5017381;28;1126;-76
2022/01/07 08:46:01;;;;;;;;;;;;;;;22.39;26.74;98306.47;5051718;28;1039;-75
2022/01/07 08:48:27;;;;;;;;;;;;;;;22.30;26.87;98305.03;5073463;28;1046;-76
2022/01/07 08:50:52;;;;;;;;;;;;;;;22.12;27.24;98299.00;5054661;28;969;-76
2022/01/07 08:53:18;;;;;;;;;;;;;;;21.94;27.30;98309.94;5053580;28;1887;-76
2022/01/07 08:55:43;;;;;;;;;;;;;;;22.15;27.10;98306.63;5053967;28;934;-75
2022/01/07 08:58:09;;;;;;;;;;;;;;;22.34;26.84;98305.75;5053669;28;1011;-76
2022/01/07 09:00:34;;;;;;;;;;;;;;;21.63;28.04;98300.91;5072103;28;962;-76
2022/01/07 09:03:00;;;;;;;;;;;;;;;21.47;28.21;98298.84;5073644;28;1004;-76
2022/01/07 09:05:26;;;;;;;;;;;;;;;22.23;27.01;98293.88;5074150;28;962;-75
2022/01/07 09:07:51;;;;;;;;;;;;;;;21.98;27.35;98288.00;5074276;28;945;-76
2022/01/07 09:10:17;;;;;;;;;;;;;;;21.67;28.05;98288.28;5053331;28;1015;-76
2022/01/07 09:12:42;;;;;;;;;;;;;;;22.23;27.03;98288.22;5054070;28;1906;-76
2022/01/07 09:15:08;;;;;;;;;;;;;;;22.47;26.58;98285.19;5053713;28;972;-76
2022/01/07 09:17:35;;;;;;;;;;;;;;;22.16;26.92;98291.22;5053808;28;1228;-76
2022/01/07 09:20:01;;;;;;;;;;;;;;;21.99;27.46;98296.03;5053702;28;1113;-76
2022/01/07 09:22:26;;;;;;;;;;;;;;;22.06;27.30;98292.22;5054156;28;1107;-76
2022/01/07 09:24:52;;;;;;;;;;;;;;;22.39;26.56;98306.47;5053224;28;937;-76
2022/01/07 09:27:17;;;;;;;;;;;;;;;22.24;26.76;98284.13;5055891;28;1090;-75
2022/01/07 09:29:43;;;;;;;;;;;;;;;22.16;27.15;98282.69;5057512;28;977;-76
2022/01/07 09:32:08;;;;;;;;;;;;;;;22.11;27.04;98277.56;5058093;28;1993;-76
2022/01/07 09:34:35;;;;;;;;;;;;;;;21.94;27.28;98287.25;5057352;28;1036;-76
2022/01/07 09:37:01;;;;;;;;;;;;;;;22.26;26.83;98284.47;5058113;28;989;-76
2022/01/07 09:39:27;;;;;;;;;;;;;;;22.14;27.03;98278.72;5057618;28;1040;-76
2022/01/07 09:41:52;;;;;;;;;;;;;;;22.09;27.14;98280.03;5087687;28;1375;-76
2022/01/07 09:44:18;;;;;;;;;;;;;;;22.27;26.66;98283.22;5097554;28;1161;-76
2022/01/07 09:46:46;;;;;;;;;;;;;;;22.21;27.10;98282.19;5097904;28;989;-75
2022/01/07 09:49:11;;;;;;;;;;;;;;;21.71;27.78;98280.50;5097552;28;969;-76
2022/01/07 09:51:37;;;;;;;;;;;;;;;21.77;27.93;98273.09;5064258;28;1066;-76
2022/01/07 09:54:03;;;;;;;;;;;;;;;21.82;27.56;98281.06;5096962;28;1997;-76
2022/01/07 09:56:28;;;;;;;;;;;;;;;22.24;26.88;98289.81;5098128;28;965;-75
2022/01/07 09:58:54;;;;;;;;;;;;;;;22.28;26.76;98281.22;5097416;28;978;-76
2022/01/07 10:01:21;;;;;;;;;;;;;;;21.98;27.32;98271.00;5096093;28;961;-76
2022/01/07 10:03:47;;;;;;;;;;;;;;;21.94;27.57;98275.94;5117177;28;1004;-76
2022/01/07 10:06:19;;;;;;;;;;;;;;;22.31;26.75;98272.59;5118195;28;914;-75
2022/01/07 10:08:46;;;;;;;;;;;;;;;22.08;27.42;98281.28;5117300;28;1012;-76
2022/01/07 10:11:14;;;;;;;;;;;;;;;22.02;27.35;98277.34;5117958;28;1008;-75
2022/01/07 10:13:39;;;;;;;;;;;;;;;22.27;26.83;98280.41;5111520;28;2012;-75
2022/01/07 10:16:15;;;;;;;;;;;;;;;22.07;27.18;98283.31;5098085;28;1039;-76
2022/01/07 10:18:41;;;;;;;;;;;;;;;22.08;27.33;98275.59;5096427;28;1088;-75
2022/01/07 10:21:06;;;;;;;;;;;;;;;22.16;27.23;98274.19;5097872;28;1016;-76
2022/01/07 10:23:32;;;;;;;;;;;;;;;21.55;28.31;98271.94;5096412;28;993;-75
2022/01/07 10:25:57;;;;;;;;;;;;;;;21.82;27.75;98281.06;5097751;28;996;-76
2022/01/07 10:28:41;;;;;;;;;;;;;;;22.21;27.13;98285.00;5096701;28;1000;-76
2022/01/07 10:31:07;;;;;;;;;;;;;;;22.20;27.16;98280.59;5097890;28;917;-75
2022/01/07 10:33:36;;;;;;;;;;;;;;;22.00;27.43;98286.28;5095996;28;1902;-76
2022/01/07 10:36:07;;;;;;;;;;;;;;;21.50;28.51;98280.97;5059485;28;983;-75
2022/01/07 10:38:33;;;;;;;;;;;;;;;22.03;27.17;98284.63;5057212;28;885;-76
2022/01/07 10:40:59;;;;;;;;;;;;;;;22.05;27.21;98282.13;5059929;28;1090;-76
2022/01/07 10:43:27;;;;;;;;;;;;;;;21.64;28.10;98283.47;5058513;28;872;-76
2022/01/07 10:46:00;;;;;;;;;;;;;;;22.21;27.35;98285.00;5059420;28;941;-75
2022/01/07 10:48:55;;;;;;;;;;;;;;;22.16;27.08;98285.53;5058100;28;970;-76
2022/01/07 10:51:23;;;;;;;;;;;;;;;21.47;28.44;98276.19;5076600;28;930;-76
2022/01/07 10:53:52;;;;;;;;;;;;;;;21.91;27.51;98280.44;5075544;28;1979;-76
2022/01/07 10:56:19;;;;;;;;;;;;;;;22.12;27.05;98275.53;5076851;28;1078;-76
2022/01/07 10:58:44;;;;;;;;;;;;;;;22.15;27.29;98286.00;5075388;28;1067;-75
2022/01/07 11:01:30;;;;;;;;;;;;;;;21.71;28.01;98283.34;5076733;28;1034;-76
2022/01/07 11:03:59;;;;;;;;;;;;;;;22.22;26.97;98280.94;5075195;28;933;-76
2022/01/07 11:06:25;;;;;;;;;;;;;;;22.20;26.69;98277.75;5077003;28;1008;-77
2022/01/07 11:08:52;;;;;;;;;;;;;;;21.62;27.81;98285.97;5075879;28;970;-76
2022/01/07 11:11:18;;;;;;;;;;;;;;;21.68;27.80;98292.69;5076850;28;949;-76
2022/01/07 11:13:44;;;;;;;;;;;;;;;21.89;27.48;98290.63;5075631;28;1901;-76
2022/01/07 11:16:09;;;;;;;;;;;;;;;22.13;27.04;98289.28;5076789;28;1163;-76
2022/01/07 11:18:37;;;;;;;;;;;;;;;22.09;26.98;98300.66;5075461;28;1040;-76
2022/01/07 11:21:05;;;;;;;;;;;;;;;22.34;26.80;98294.41;5059643;28;1040;-76
2022/01/07 11:23:31;;;;;;;;;;;;;;;21.95;27.46;98311.53;5075292;28;915;-76
2022/01/07 11:26:00;;;;;;;;;;;;;;;22.21;27.14;98306.88;5076351;28;1027;-76
2022/01/07 11:28:26;;;;;;;;;;;;;;;22.06;27.10;98309.22;5061027;28;909;-76
2022/01/07 11:30:53;;;;;;;;;;;;;;;22.22;26.78;98309.28;5058323;28;903;-76
2022/01/07 11:33:22;;;;;;;;;;;;;;;21.68;27.88;98315.34;5062617;28;1917;-76
2022/01/07 11:35:48;;;;;;;;;;;;;;;22.20;26.97;98311.75;5058820;28;996;-76
2022/01/07 11:38:14;;;;;;;;;;;;;;;22.18;27.06;98302.13;5057692;28;918;-76
2022/01/07 11:40:40;;;;;;;;;;;;;;;21.56;28.26;98314.00;5095809;28;1269;-74
2022/01/07 11:43:08;;;;;;;;;;;;;;;21.73;27.86;98299.88;5095589;28;958;-75
2022/01/07 11:45:33;;;;;;;;;;;;;;;22.08;27.13;98309.59;5093594;28;1031;-74
2022/01/07 11:48:14;;;;;;;;;;;;;;;22.41;27.00;98298.31;5095501;28;1013;-75
2022/01/07 11:50:46;;;;;;;;;;;;;;;21.52;28.17;98303.97;5055092;28;997;-74
2022/01/07 11:53:11;;;;;;;;;;;;;;;22.14;27.31;98313.53;5034427;28;1906;-74
2022/01/07 11:55:37;;;;;;;;;;;;;;;22.36;26.91;98308.94;5054775;28;938;-75
2022/01/07 11:58:04;;;;;;;;;;;;;;;21.97;27.79;98303.41;5055086;28;944;-74
2022/01/07 12:00:48;;;;;;;;;;;;;;;22.33;26.97;98298.50;5054731;28;972;-74
2022/01/07 12:03:13;;;;;;;;;;;;;;;22.28;27.33;98306.72;4995042;28;976;-74
2022/01/07 12:05:39;;;;;;;;;;;;;;;21.91;27.93;98305.13;4963304;28;998;-74
2022/01/07 12:08:04;;;;;;;;;;;;;;;22.26;26.86;98304.31;4995063;28;959;-74
2022/01/07 12:10:30;;;;;;;;;;;;;;;22.20;26.98;98306.09;4994639;28;972;-74
2022/01/07 12:12:59;;;;;;;;;;;;;;;21.60;27.96;98302.56;4956420;29;1993;-74
2022/01/07 12:15:24;;;;;;;;;;;;;;;21.95;27.45;98305.84;4956768;29;971;-74
2022/01/07 12:17:50;;;;;;;;;;;;;;;22.22;27.18;98314.94;4956779;29;1033;-74
2022/01/07 12:20:33;;;;;;;;;;;;;;;21.98;27.64;98311.44;4956252;29;1114;-74
2022/01/07 12:22:59;;;;;;;;;;;;;;;21.89;27.59;98313.28;4936926;29;947;-74
2022/01/07 12:25:25;;;;;;;;;;;;;;;22.01;26.94;98287.88;4959027;28;960;-74
2022/01/07 12:27:58;;;;;;;;;;;;;;;22.04;27.24;98311.72;4992412;28;955;-75
2022/01/07 12:30:23;;;;;;;;;;;;;;;22.17;27.12;98326.81;4975892;28;1114;-74
2022/01/07 12:32:49;;;;;;;;;;;;;;;21.45;28.52;98323.94;4975676;28;1915;-75
2022/01/07 12:35:14;;;;;;;;;;;;;;;22.29;26.92;98328.97;5029702;28;1047;-75
2022/01/07 12:37:40;;;;;;;;;;;;;;;22.06;27.20;98329.06;5043298;28;953;-75
2022/01/07 12:40:06;;;;;;;;;;;;;;;21.82;27.95;98309.38;5056605;28;1097;-75
2022/01/07 12:42:36;;;;;;;;;;;;;;;22.21;27.41;98319.03;5071300;28;978;-75
2022/01/07 12:45:02;;;;;;;;;;;;;;;22.10;27.40;98322.13;5093719;28;937;-75
2022/01/07 12:47:28;;;;;;;;;;;;;;;21.30;28.83;98317.78;5094721;28;951;-75
2022/01/07 12:49:57;;;;;;;;;;;;;;;21.61;28.29;98321.19;5094647;28;1016;-75
2022/01/07 12:52:29;;;;;;;;;;;;;;;22.04;27.60;98325.88;5094400;28;1902;-75
2022/01/07 12:54:56;;;;;;;;;;;;;;;22.06;27.37;98323.41;5093948;28;1043;-75
2022/01/07 12:57:25;;;;;;;;;;;;;;;21.99;27.55;98326.41;5094825;28;958;-75
2022/01/07 13:00:07;;;;;;;;;;;;;;;21.95;27.39;98328.53;5094021;28;1031;-75
2022/01/07 13:02:33;;;;;;;;;;;;;;;22.11;27.25;98331.41;5093925;28;949;-75
2022/01/07 13:05:10;;;;;;;;;;;;;;;21.91;27.73;98333.47;5093926;28;1280;-75
2022/01/07 13:07:39;;;;;;;;;;;;;;;21.95;27.67;98334.19;5094043;28;1065;-75